Time;durP1;ratioP1;P1;durP2;ratioP2;P2;SDS_P1;SDS_P2;PMS_P1;PMS_P2;Temp;Humidity;BMP_temperature;BMP_pressure;BME280_temperature;BME280_humidity;BME280_pressure;Samples;Min_cycle;Max_cycle;Signal;HPM_P1;HPM_P2
2022/12/01 00:00:26;;;;;;;2.20;2.20;;;17.90;72.20;;;;;;5119929;27;43869;-74
2022/12/01 00:02:54;;;;;;;2.20;2.20;;;17.90;72.10;;;;;;5121801;27;43436;-74
2022/12/01 00:05:22;;;;;;;1.93;1.93;;;17.90;72.10;;;;;;5116123;27;43998;-76
2022/12/01 00:07:52;;;;;;;1.80;1.80;;;17.90;72.20;;;;;;5123016;27;43852;-73
2022/12/01 00:10:24;;;;;;;2.13;2.13;;;17.90;72.30;;;;;;5106337;27;45257;-74
2022/12/01 00:12:52;;;;;;;2.17;2.10;;;17.90;72.50;;;;;;5124980;27;43424;-73
2022/12/01 00:15:20;;;;;;;1.93;1.93;;;17.80;72.50;;;;;;5121747;27;43415;-76
2022/12/01 00:17:48;;;;;;;1.83;1.83;;;17.90;72.50;;;;;;5109638;27;43952;-73
2022/12/01 00:20:17;;;;;;;2.00;2.00;;;17.90;72.50;;;;;;5126475;27;43670;-73
2022/12/01 00:22:46;;;;;;;1.97;1.97;;;17.90;72.50;;;;;;5117276;27;43398;-74
2022/12/01 00:25:16;;;;;;;2.00;2.00;;;17.80;72.50;;;;;;5124246;27;44132;-75
2022/12/01 00:27:47;;;;;;;2.07;2.07;;;17.80;72.60;;;;;;5116027;27;43845;-75
2022/12/01 00:30:15;;;;;;;1.83;1.83;;;17.80;72.70;;;;;;5113532;27;43495;-75
2022/12/01 00:32:43;;;;;;;1.80;1.80;;;18.00;72.50;;;;;;5120123;27;43459;-76
2022/12/01 00:35:11;;;;;;;1.87;1.87;;;18.00;72.00;;;;;;5124663;27;43603;-73
2022/12/01 00:37:38;;;;;;;1.80;1.80;;;18.10;71.80;;;;;;5124018;27;43590;-73
2022/12/01 00:40:07;;;;;;;1.63;1.63;;;18.10;71.70;;;;;;5125051;27;43472;-75
2022/12/01 00:42:37;;;;;;;1.77;1.77;;;18.00;71.70;;;;;;5110940;27;43967;-71
2022/12/01 00:45:06;;;;;;;1.90;1.90;;;18.00;71.90;;;;;;5122098;27;43436;-75
2022/12/01 00:47:34;;;;;;;1.80;1.80;;;18.00;71.70;;;;;;5123123;27;44064;-75
2022/12/01 00:50:02;;;;;;;1.80;1.80;;;18.00;71.80;;;;;;5121732;27;43507;-73
2022/12/01 00:52:30;;;;;;;1.77;1.77;;;18.00;71.90;;;;;;5125465;27;43997;-71
2022/12/01 00:54:58;;;;;;;1.70;1.70;;;17.90;71.90;;;;;;5119489;27;43354;-75
2022/12/01 00:57:26;;;;;;;1.90;1.90;;;17.90;72.20;;;;;;5119660;27;43935;-75
2022/12/01 00:59:55;;;;;;;1.60;1.60;;;17.90;72.30;;;;;;5120790;27;44304;-74
2022/12/01 01:02:23;;;;;;;2.00;2.00;;;17.90;72.20;;;;;;5118319;27;43980;-73
2022/12/01 01:04:51;;;;;;;1.80;1.80;;;17.90;72.20;;;;;;5117478;27;43972;-73
2022/12/01 01:07:20;;;;;;;1.60;1.60;;;17.90;72.30;;;;;;5115847;27;45724;-75
2022/12/01 01:09:48;;;;;;;1.97;1.97;;;17.90;72.40;;;;;;5117242;27;43300;-73
2022/12/01 01:12:16;;;;;;;1.80;1.80;;;17.80;72.40;;;;;;5124581;27;43464;-75
2022/12/01 01:14:44;;;;;;;1.60;1.60;;;17.80;72.60;;;;;;5117345;27;44086;-74
2022/12/01 01:17:14;;;;;;;1.40;1.40;;;17.90;72.50;;;;;;5109797;27;43556;-76
2022/12/01 01:19:41;;;;;;;1.53;1.53;;;18.00;72.10;;;;;;5118074;27;43464;-73
2022/12/01 01:22:09;;;;;;;1.50;1.50;;;18.00;71.70;;;;;;5112435;27;43588;-75
2022/12/01 01:24:37;;;;;;;1.60;1.60;;;18.00;71.70;;;;;;5121414;27;43431;-77
2022/12/01 01:27:05;;;;;;;1.70;1.70;;;18.00;71.80;;;;;;5122986;27;46197;-73
2022/12/01 01:29:33;;;;;;;1.93;1.93;;;18.00;72.00;;;;;;5118879;27;44372;-77
2022/12/01 01:32:03;;;;;;;1.80;1.80;;;18.00;72.00;;;;;;5124369;27;43908;-75
2022/12/01 01:34:32;;;;;;;1.70;1.70;;;18.00;72.00;;;;;;5125305;27;43467;-73
2022/12/01 01:37:00;;;;;;;1.63;1.63;;;17.90;71.90;;;;;;5119332;27;43910;-74
2022/12/01 01:39:28;;;;;;;1.70;1.70;;;17.90;72.00;;;;;;5125163;27;43422;-73
2022/12/01 01:41:56;;;;;;;1.50;1.50;;;17.90;72.20;;;;;;5116839;27;43402;-76
2022/12/01 01:44:47;;;;;;;1.60;1.60;;;17.80;72.50;;;;;;5121966;27;44000;-73
2022/12/01 01:47:15;;;;;;;1.70;1.70;;;17.90;72.30;;;;;;5120605;27;43787;-75
2022/12/01 01:49:44;;;;;;;1.57;1.57;;;17.90;72.30;;;;;;5121293;27;44394;-74
2022/12/01 01:52:13;;;;;;;1.60;1.60;;;17.80;72.20;;;;;;5120055;27;43358;-72
2022/12/01 01:54:44;;;;;;;1.57;1.57;;;17.80;72.30;;;;;;5107993;27;43733;-74
2022/12/01 01:57:12;;;;;;;1.73;1.73;;;17.80;72.40;;;;;;5107731;27;43630;-76
2022/12/01 01:59:41;;;;;;;1.90;1.90;;;17.80;72.70;;;;;;5123901;27;43389;-73
2022/12/01 02:02:10;;;;;;;1.90;1.90;;;17.90;72.50;;;;;;5104143;27;43403;-73
2022/12/01 02:04:40;;;;;;;1.73;1.73;;;18.00;72.10;;;;;;5116925;27;43586;-75
2022/12/01 02:07:09;;;;;;;1.60;1.60;;;18.10;71.80;;;;;;5112298;27;43877;-75
2022/12/01 02:09:37;;;;;;;1.57;1.57;;;18.00;71.60;;;;;;5117729;27;43912;-74
2022/12/01 02:12:12;;;;;;;1.63;1.63;;;18.00;71.70;;;;;;5114415;27;43916;-76
2022/12/01 02:15:02;;;;;;;1.73;1.73;;;18.00;72.00;;;;;;5118327;27;43576;-73
2022/12/01 02:17:31;;;;;;;1.80;1.80;;;18.00;71.90;;;;;;5110966;27;43966;-71
2022/12/01 02:20:22;;;;;;;1.70;1.70;;;18.00;72.00;;;;;;5125478;27;43414;-73
2022/12/01 02:23:01;;;;;;;1.80;1.80;;;17.90;71.90;;;;;;5118498;27;43374;-72
2022/12/01 02:25:33;;;;;;;1.70;1.70;;;17.90;72.80;;;;;;5118243;27;43408;-75
2022/12/01 02:28:21;;;;;;;2.00;1.90;;;17.80;72.30;;;;;;5121304;27;43604;-76
2022/12/01 02:30:50;;;;;;;1.70;1.70;;;17.80;72.30;;;;;;5119647;27;43463;-75
2022/12/01 02:33:20;;;;;;;1.70;1.70;;;17.80;72.20;;;;;;5122852;27;43529;-72
2022/12/01 02:35:50;;;;;;;1.60;1.60;;;17.80;72.20;;;;;;5119195;27;44074;-74
2022/12/01 02:38:23;;;;;;;1.70;1.70;;;17.90;72.40;;;;;;5108158;27;45298;-72
2022/12/01 02:40:54;;;;;;;2.00;1.90;;;17.80;72.40;;;;;;5112544;27;43428;-73
2022/12/01 02:43:26;;;;;;;1.87;1.87;;;17.80;72.60;;;;;;5120290;27;43423;-76
2022/12/01 02:45:57;;;;;;;1.90;1.90;;;17.80;72.50;;;;;;5120884;27;43485;-72
2022/12/01 02:48:26;;;;;;;1.60;1.60;;;17.80;72.40;;;;;;5129672;27;43968;-76
2022/12/01 02:50:54;;;;;;;1.80;1.80;;;17.80;72.40;;;;;;5116845;27;44710;-75
2022/12/01 02:53:22;;;;;;;1.77;1.77;;;17.80;72.40;;;;;;5121820;27;43389;-73
2022/12/01 02:55:51;;;;;;;1.97;1.97;;;17.80;72.40;;;;;;5119958;27;43605;-77
2022/12/01 02:58:19;;;;;;;1.90;1.90;;;17.80;72.70;;;;;;5119406;27;43847;-72
2022/12/01 03:00:59;;;;;;;1.83;1.83;;;17.80;72.60;;;;;;5120340;27;45026;-73
2022/12/01 03:03:36;;;;;;;1.70;1.70;;;17.90;72.30;;;;;;5120941;27;43428;-74
2022/12/01 03:06:08;;;;;;;2.10;1.97;;;18.00;71.80;;;;;;5117043;27;44216;-75
2022/12/01 03:08:44;;;;;;;1.97;1.90;;;18.10;71.60;;;;;;5119958;27;45704;-75
2022/12/01 03:11:25;;;;;;;1.60;1.60;;;18.10;71.60;;;;;;5126292;27;43505;-75
2022/12/01 03:13:58;;;;;;;2.00;2.00;;;18.00;71.80;;;;;;5121477;27;43441;-77
2022/12/01 03:16:29;;;;;;;1.83;1.83;;;18.00;71.70;;;;;;5122160;27;43375;-73
2022/12/01 03:18:59;;;;;;;1.83;1.83;;;18.00;71.70;;;;;;5114080;27;45956;-73
2022/12/01 03:21:28;;;;;;;1.97;1.97;;;18.00;71.80;;;;;;5128801;27;43806;-74
2022/12/01 03:23:58;;;;;;;1.73;1.73;;;17.90;71.90;;;;;;5123760;27;43354;-73
2022/12/01 03:26:26;;;;;;;1.90;1.90;;;17.90;72.80;;;;;;5120984;27;43534;-73
2022/12/01 03:28:56;;;;;;;1.80;1.80;;;17.90;72.30;;;;;;5122533;27;43846;-76
2022/12/01 03:31:25;;;;;;;2.00;2.00;;;17.80;72.10;;;;;;5117420;27;44647;-77
2022/12/01 03:33:57;;;;;;;1.90;1.90;;;17.80;72.20;;;;;;5125072;27;43431;-77
2022/12/01 03:36:27;;;;;;;1.90;1.90;;;17.80;72.20;;;;;;5122540;27;43516;-74
2022/12/01 03:38:58;;;;;;;1.70;1.70;;;17.80;72.30;;;;;;5120961;27;43802;-76
2022/12/01 03:41:29;;;;;;;2.10;2.10;;;17.80;72.40;;;;;;5121674;27;43892;-75
2022/12/01 03:44:00;;;;;;;2.20;2.20;;;17.80;72.60;;;;;;5126045;27;43453;-73
2022/12/01 03:46:32;;;;;;;1.93;1.93;;;17.90;72.40;;;;;;5119924;27;43589;-75
2022/12/01 03:49:02;;;;;;;2.10;2.10;;;18.00;72.00;;;;;;5113616;27;43876;-76
2022/12/01 03:51:31;;;;;;;2.17;2.17;;;18.00;71.70;;;;;;5117763;27;43884;-74
2022/12/01 03:54:03;;;;;;;1.80;1.80;;;18.00;71.70;;;;;;5119738;27;43389;-76
2022/12/01 03:56:33;;;;;;;1.80;1.80;;;18.00;71.70;;;;;;5117163;27;43422;-75
2022/12/01 03:59:01;;;;;;;2.13;2.03;;;18.00;72.00;;;;;;5118317;27;45381;-73
2022/12/01 04:01:31;;;;;;;1.90;1.90;;;18.00;71.90;;;;;;5115508;27;44989;-76
2022/12/01 04:04:05;;;;;;;2.00;2.00;;;17.90;71.90;;;;;;5125373;27;43436;-74
2022/12/01 04:06:33;;;;;;;1.83;1.83;;;17.90;72.00;;;;;;5113538;27;43482;-74
2022/12/01 04:09:01;;;;;;;1.90;1.90;;;17.80;72.00;;;;;;5123267;27;46005;-73
2022/12/01 04:14:14;;;;;;;2.00;2.00;;;17.80;72.30;;;;;;5120394;27;43448;-73
2022/12/01 04:16:42;;;;;;;1.80;1.80;;;17.80;72.20;;;;;;5119393;27;43376;-77
2022/12/01 04:19:12;;;;;;;1.90;1.90;;;17.80;72.30;;;;;;5108932;27;43955;-75
2022/12/01 04:21:40;;;;;;;1.60;1.60;;;17.80;72.30;;;;;;5120106;27;43476;-74
2022/12/01 04:24:08;;;;;;;2.00;2.00;;;17.80;72.50;;;;;;5122148;27;43405;-74
2022/12/01 04:26:36;;;;;;;2.00;2.00;;;17.70;72.50;;;;;;5118676;27;43920;-75
2022/12/01 04:29:05;;;;;;;2.00;2.00;;;17.70;72.70;;;;;;5105712;27;45704;-73
2022/12/01 04:31:33;;;;;;;2.10;2.10;;;17.90;72.50;;;;;;5113957;27;43374;-74
2022/12/01 04:34:01;;;;;;;2.00;2.00;;;18.00;72.10;;;;;;5106505;27;43397;-75
2022/12/01 04:36:31;;;;;;;1.97;1.97;;;18.00;71.80;;;;;;5110739;27;43448;-73
2022/12/01 04:38:59;;;;;;;1.70;1.70;;;18.00;71.70;;;;;;5110929;27;43591;-76
2022/12/01 04:41:27;;;;;;;1.90;1.90;;;17.90;71.90;;;;;;5107538;27;44746;-74
2022/12/01 04:43:55;;;;;;;2.10;2.10;;;17.90;71.90;;;;;;5104459;27;43546;-74
2022/12/01 04:46:24;;;;;;;2.20;2.20;;;17.90;71.80;;;;;;5111701;27;43801;-73
2022/12/01 04:48:52;;;;;;;1.90;1.90;;;17.90;71.90;;;;;;5107811;27;43945;-77
2022/12/01 04:51:21;;;;;;;1.80;1.80;;;17.90;71.90;;;;;;5101824;27;44788;-76
2022/12/01 04:53:50;;;;;;;2.13;2.03;;;17.80;72.00;;;;;;5109644;27;43380;-75
2022/12/01 04:56:18;;;;;;;2.33;2.23;;;17.80;72.30;;;;;;5111489;27;43476;-74
2022/12/01 04:58:46;;;;;;;3.13;2.80;;;17.80;72.30;;;;;;5109852;27;43852;-75
2022/12/01 05:01:14;;;;;;;3.03;2.80;;;17.80;72.20;;;;;;5108777;27;43453;-74
2022/12/01 05:03:43;;;;;;;2.30;2.20;;;17.80;72.20;;;;;;5109630;27;43988;-73
2022/12/01 05:06:15;;;;;;;2.67;2.57;;;17.80;72.20;;;;;;5107573;27;43443;-72
2022/12/01 05:08:44;;;;;;;3.47;3.17;;;17.80;72.30;;;;;;5113208;27;43685;-73
2022/12/01 05:11:13;;;;;;;3.57;3.27;;;17.80;72.50;;;;;;5110321;27;44316;-75
2022/12/01 05:13:43;;;;;;;4.30;3.23;;;17.80;72.30;;;;;;5108863;27;43998;-72
2022/12/01 05:16:11;;;;;;;3.50;3.20;;;17.80;72.20;;;;;;5112216;27;43990;-72
2022/12/01 05:18:39;;;;;;;3.83;3.23;;;17.80;72.20;;;;;;5103752;27;45734;-71
2022/12/01 05:21:08;;;;;;;3.80;3.50;;;17.80;72.10;;;;;;5105807;27;43478;-76
2022/12/01 05:23:37;;;;;;;4.47;4.07;;;17.80;72.20;;;;;;5116897;27;44011;-74
2022/12/01 05:26:05;;;;;;;6.10;3.60;;;17.80;72.50;;;;;;5114646;27;43584;-73
2022/12/01 05:28:35;;;;;;;4.47;3.80;;;17.80;72.30;;;;;;5118157;27;43598;-76
2022/12/01 05:31:03;;;;;;;5.93;4.30;;;18.00;72.10;;;;;;5110488;27;43497;-74
2022/12/01 05:33:31;;;;;;;6.13;4.47;;;18.10;71.70;;;;;;5121642;27;43435;-72
2022/12/01 05:35:59;;;;;;;4.50;4.00;;;18.10;71.30;;;;;;5120758;27;43932;-76
2022/12/01 05:38:27;;;;;;;5.67;4.50;;;18.10;71.30;;;;;;5117330;27;44020;-75
2022/12/01 05:40:55;;;;;;;7.50;4.10;;;18.00;71.60;;;;;;5119982;27;43902;-72
2022/12/01 05:43:23;;;;;;;4.63;4.23;;;18.10;72.30;;;;;;5122493;27;43479;-75
2022/12/01 05:45:57;;;;;;;5.33;3.63;;;18.00;71.30;;;;;;5114189;27;43636;-76
2022/12/01 05:48:25;;;;;;;5.43;3.93;;;18.00;71.40;;;;;;5105676;27;43857;-76
2022/12/01 05:50:53;;;;;;;5.37;4.40;;;18.00;71.60;;;;;;5119910;27;44798;-73
2022/12/01 05:53:22;;;;;;;5.13;4.00;;;17.90;71.70;;;;;;5120832;27;43381;-75
2022/12/01 05:55:52;;;;;;;6.20;4.20;;;17.90;72.00;;;;;;5121807;27;43467;-73
2022/12/01 05:58:20;;;;;;;4.40;4.00;;;17.90;72.10;;;;;;5122377;27;45628;-75
2022/12/01 06:00:48;;;;;;;5.23;4.00;;;17.90;71.90;;;;;;5119452;27;43888;-75
2022/12/01 06:03:17;;;;;;;4.57;4.00;;;17.90;72.00;;;;;;5126010;27;43484;-72
2022/12/01 06:05:45;;;;;;;3.53;3.33;;;17.80;72.00;;;;;;5121885;27;43465;-74
2022/12/01 06:08:13;;;;;;;4.43;3.93;;;17.80;72.10;;;;;;5123316;27;43931;-74
2022/12/01 06:10:41;;;;;;;4.40;4.00;;;17.80;72.40;;;;;;5125816;27;43541;-74
2022/12/01 06:13:09;;;;;;;3.77;3.47;;;17.80;72.40;;;;;;5123649;27;43509;-73
2022/12/01 06:15:37;;;;;;;4.30;3.83;;;17.90;72.10;;;;;;5127349;27;43510;-76
2022/12/01 06:18:05;;;;;;;4.43;4.03;;;18.00;71.70;;;;;;5112462;27;43729;-74
2022/12/01 06:20:34;;;;;;;4.60;3.80;;;18.00;71.50;;;;;;5117373;27;44739;-76
2022/12/01 06:23:02;;;;;;;5.17;3.90;;;18.00;71.50;;;;;;5115438;27;43426;-75
2022/12/01 06:25:30;;;;;;;3.90;3.60;;;17.90;71.80;;;;;;5118008;27;43608;-74
2022/12/01 06:27:58;;;;;;;3.97;3.67;;;18.00;71.90;;;;;;5124729;27;43921;-75
2022/12/01 06:30:26;;;;;;;4.20;3.80;;;17.90;71.60;;;;;;5122968;27;43391;-72
2022/12/01 06:32:54;;;;;;;3.80;3.50;;;17.90;71.70;;;;;;5126479;27;43403;-76
2022/12/01 06:35:22;;;;;;;4.93;3.53;;;17.90;71.80;;;;;;5115077;27;44034;-75
2022/12/01 06:37:52;;;;;;;4.03;3.73;;;17.90;71.90;;;;;;5120061;27;44156;-73
2022/12/01 06:40:21;;;;;;;3.80;3.50;;;17.80;72.20;;;;;;5124872;27;43895;-75
2022/12/01 06:42:49;;;;;;;3.47;3.20;;;17.80;72.10;;;;;;5124924;27;43554;-72
2022/12/01 06:45:17;;;;;;;3.10;2.83;;;17.80;72.00;;;;;;5121585;27;43431;-76
2022/12/01 06:47:46;;;;;;;3.67;3.37;;;17.80;72.00;;;;;;5123056;27;43893;-72
2022/12/01 06:50:15;;;;;;;3.90;3.53;;;17.80;72.00;;;;;;5113108;27;43543;-73
2022/12/01 06:52:43;;;;;;;3.50;3.30;;;17.80;72.10;;;;;;5117348;27;44085;-73
2022/12/01 06:55:12;;;;;;;4.10;3.70;;;17.80;72.40;;;;;;5121576;27;43892;-75
2022/12/01 06:57:40;;;;;;;3.73;3.50;;;17.80;72.30;;;;;;5118167;27;44369;-74
2022/12/01 07:00:10;;;;;;;3.57;3.37;;;17.90;72.00;;;;;;5121401;27;43534;-75
2022/12/01 07:02:38;;;;;;;4.00;3.60;;;18.00;71.70;;;;;;5123002;27;43911;-75
2022/12/01 07:05:07;;;;;;;3.90;3.50;;;18.00;71.40;;;;;;5111508;27;43802;-76
2022/12/01 07:07:36;;;;;;;3.73;3.23;;;18.10;71.50;;;;;;5122837;27;44005;-72
2022/12/01 07:10:06;;;;;;;3.30;3.10;;;18.00;71.50;;;;;;5122047;27;44688;-76
2022/12/01 07:12:35;;;;;;;3.43;3.23;;;17.90;71.50;;;;;;5113709;27;43519;-73
2022/12/01 07:15:03;;;;;;;3.27;3.07;;;17.90;71.80;;;;;;5121667;27;43465;-73
2022/12/01 07:17:32;;;;;;;3.10;3.00;;;17.90;71.90;;;;;;5109319;27;45735;-75
2022/12/01 07:20:00;;;;;;;3.20;3.00;;;17.80;72.70;;;;;;5118957;27;43958;-75
2022/12/01 07:22:29;;;;;;;3.60;3.30;;;17.80;72.10;;;;;;5117080;27;43406;-77
2022/12/01 07:25:00;;;;;;;3.53;3.23;;;17.80;72.20;;;;;;5120546;27;44024;-75
2022/12/01 07:27:30;;;;;;;3.00;2.90;;;17.80;72.50;;;;;;5120603;27;43918;-76
2022/12/01 07:29:59;;;;;;;3.10;2.90;;;17.90;72.50;;;;;;5116948;27;43872;-75
2022/12/01 07:32:27;;;;;;;3.33;3.13;;;18.00;72.10;;;;;;5119086;27;43993;-76
2022/12/01 07:34:55;;;;;;;3.37;3.17;;;18.10;71.60;;;;;;5125070;27;43385;-73
2022/12/01 07:37:23;;;;;;;3.43;3.23;;;18.30;71.30;;;;;;5117103;27;45112;-75
2022/12/01 07:39:51;;;;;;;3.30;3.00;;;18.40;70.70;;;;;;5117102;27;43439;-75
2022/12/01 07:42:19;;;;;;;2.97;2.87;;;18.60;70.10;;;;;;5118650;27;43464;-73
2022/12/01 07:44:47;;;;;;;2.90;2.70;;;18.70;69.60;;;;;;5123012;27;43799;-74
2022/12/01 07:47:16;;;;;;;3.00;2.90;;;18.90;69.10;;;;;;5119884;27;43603;-73
2022/12/01 07:49:45;;;;;;;3.40;3.10;;;19.00;68.70;;;;;;5118025;27;43457;-74
2022/12/01 07:52:13;;;;;;;3.33;3.13;;;19.10;68.40;;;;;;5119194;27;44059;-75
2022/12/01 07:54:41;;;;;;;3.00;2.80;;;19.20;68.10;;;;;;5123865;27;43526;-75
2022/12/01 07:57:09;;;;;;;3.33;3.10;;;19.20;67.90;;;;;;5120075;27;43990;-73
2022/12/01 07:59:37;;;;;;;3.20;3.00;;;19.10;68.10;;;;;;5124501;27;43457;-73
2022/12/01 08:02:05;;;;;;;3.13;2.93;;;19.00;68.30;;;;;;5124813;27;43523;-71
2022/12/01 08:04:34;;;;;;;3.00;2.90;;;18.80;68.80;;;;;;5109922;27;43498;-73
2022/12/01 08:07:02;;;;;;;3.00;2.80;;;18.70;69.70;;;;;;5124465;27;43934;-75
2022/12/01 08:09:30;;;;;;;3.37;3.17;;;18.60;69.80;;;;;;5120211;27;43490;-75
2022/12/01 08:11:59;;;;;;;2.97;2.77;;;18.50;69.90;;;;;;5121565;27;43416;-73
2022/12/01 08:14:27;;;;;;;2.60;2.50;;;18.40;70.10;;;;;;5121411;27;43452;-74
2022/12/01 08:16:55;;;;;;;3.40;3.20;;;18.30;70.40;;;;;;5104300;27;43590;-76
2022/12/01 08:19:24;;;;;;;2.97;2.87;;;18.20;71.00;;;;;;5116970;27;43485;-73
2022/12/01 08:21:53;;;;;;;2.77;2.67;;;18.20;71.20;;;;;;5120443;27;43418;-73
2022/12/01 08:24:22;;;;;;;2.70;2.60;;;18.10;71.00;;;;;;5110642;27;43519;-76
2022/12/01 08:26:49;;;;;;;2.63;2.53;;;18.10;71.20;;;;;;5113548;27;43920;-74
2022/12/01 08:29:17;;;;;;;2.63;2.53;;;18.00;71.20;;;;;;5105477;27;43563;-72
2022/12/01 08:31:47;;;;;;;3.00;2.90;;;18.00;71.40;;;;;;5107495;27;43460;-72
2022/12/01 08:34:15;;;;;;;3.27;3.10;;;18.00;72.00;;;;;;5122492;27;43471;-73
2022/12/01 08:36:43;;;;;;;2.70;2.60;;;18.00;71.90;;;;;;5101953;27;43834;-76
2022/12/01 08:39:12;;;;;;;3.03;2.93;;;18.10;71.60;;;;;;5118937;27;43550;-76
2022/12/01 08:41:41;;;;;;;3.10;3.00;;;18.20;71.20;;;;;;5111129;27;43357;-75
2022/12/01 08:44:09;;;;;;;2.80;2.70;;;18.30;71.00;;;;;;5118900;27;43526;-76
2022/12/01 08:46:38;;;;;;;3.07;2.87;;;18.20;70.70;;;;;;5121119;27;43824;-74
2022/12/01 08:49:06;;;;;;;2.73;2.63;;;18.20;71.20;;;;;;5124249;27;44391;-74
2022/12/01 08:51:35;;;;;;;3.10;2.93;;;18.20;71.20;;;;;;5120464;27;43884;-74
2022/12/01 08:54:03;;;;;;;3.17;2.97;;;18.20;71.10;;;;;;5116616;27;44379;-76
2022/12/01 08:56:33;;;;;;;3.20;3.07;;;18.10;71.00;;;;;;5121563;27;43974;-73
2022/12/01 08:59:02;;;;;;;2.73;2.63;;;18.10;71.10;;;;;;5118635;27;45344;-75
2022/12/01 09:01:29;;;;;;;2.80;2.60;;;18.10;71.30;;;;;;5123253;27;43434;-76
2022/12/01 09:04:07;;;;;;;2.63;2.53;;;18.00;71.90;;;;;;5118039;27;43453;-75
2022/12/01 09:06:39;;;;;;;2.90;2.80;;;18.00;71.70;;;;;;5117380;27;46291;-73
2022/12/01 09:09:07;;;;;;;2.73;2.63;;;18.00;71.70;;;;;;5122295;27;44111;-76
2022/12/01 09:11:36;;;;;;;3.17;3.00;;;17.90;71.60;;;;;;5120973;27;43484;-72
2022/12/01 09:14:04;;;;;;;2.70;2.60;;;17.90;71.70;;;;;;5127590;27;43539;-73
2022/12/01 09:16:32;;;;;;;2.93;2.73;;;17.90;71.90;;;;;;5114798;27;43919;-72
2022/12/01 09:19:00;;;;;;;2.67;2.57;;;17.90;72.10;;;;;;5111309;27;43473;-72
2022/12/01 09:21:30;;;;;;;2.60;2.50;;;17.90;71.90;;;;;;5122025;27;43967;-73
2022/12/01 09:23:58;;;;;;;2.70;2.60;;;17.80;71.90;;;;;;5117233;27;43466;-74
2022/12/01 09:26:26;;;;;;;2.83;2.73;;;17.90;71.90;;;;;;5127133;27;44463;-74
2022/12/01 09:28:56;;;;;;;2.90;2.80;;;17.80;71.90;;;;;;5125948;27;43410;-75
2022/12/01 09:31:24;;;;;;;3.10;3.00;;;17.80;72.30;;;;;;5123706;27;43444;-73
2022/12/01 09:33:54;;;;;;;3.03;2.83;;;17.80;72.30;;;;;;5124190;27;43408;-76
2022/12/01 09:36:22;;;;;;;2.70;2.60;;;17.90;72.00;;;;;;5123695;27;43602;-76
2022/12/01 09:38:50;;;;;;;2.93;2.83;;;18.10;71.70;;;;;;5125025;27;44650;-75
2022/12/01 09:41:21;;;;;;;2.93;2.83;;;18.10;71.40;;;;;;5123231;27;44184;-74
2022/12/01 09:43:51;;;;;;;2.70;2.60;;;18.10;71.20;;;;;;5121724;27;43565;-75
2022/12/01 09:46:22;;;;;;;2.97;2.87;;;18.00;71.50;;;;;;5123478;27;46791;-73
2022/12/01 09:48:52;;;;;;;2.80;2.70;;;18.00;71.50;;;;;;5124901;27;43717;-73
2022/12/01 09:51:21;;;;;;;2.60;2.50;;;18.10;71.40;;;;;;5122747;27;43989;-76
2022/12/01 09:53:50;;;;;;;2.70;2.60;;;18.00;71.40;;;;;;5116256;27;43421;-75
2022/12/01 09:56:22;;;;;;;3.07;2.97;;;17.90;71.40;;;;;;5124551;27;44100;-75
2022/12/01 09:58:52;;;;;;;2.80;2.70;;;17.90;71.50;;;;;;5120730;27;43385;-75
2022/12/01 10:01:25;;;;;;;3.07;2.97;;;17.90;72.00;;;;;;5107056;27;43449;-75
2022/12/01 10:03:55;;;;;;;2.67;2.57;;;17.90;71.90;;;;;;5116823;27;43508;-75
2022/12/01 10:06:26;;;;;;;2.83;2.73;;;17.90;71.90;;;;;;5117688;27;45084;-72
2022/12/01 10:09:00;;;;;;;2.97;2.87;;;17.80;71.80;;;;;;5125427;27;43657;-75
2022/12/01 10:11:30;;;;;;;2.90;2.80;;;17.80;71.80;;;;;;5120280;27;43433;-75
2022/12/01 10:13:58;;;;;;;3.10;3.00;;;17.80;71.90;;;;;;5127095;27;43988;-72
2022/12/01 10:16:29;;;;;;;3.07;2.97;;;17.80;72.30;;;;;;5120704;27;43901;-75
2022/12/01 10:18:58;;;;;;;2.80;2.70;;;17.90;72.30;;;;;;5119937;27;43466;-73
2022/12/01 10:21:33;;;;;;;3.00;2.90;;;18.00;72.00;;;;;;5123211;27;44042;-76
2022/12/01 10:24:18;;;;;;;2.90;2.80;;;18.00;72.40;;;;;;5127636;27;43370;-75
2022/12/01 10:26:50;;;;;;;3.27;3.17;;;18.00;71.40;;;;;;5124027;27;44463;-74
2022/12/01 10:29:25;;;;;;;3.00;2.90;;;18.00;71.60;;;;;;5103963;27;44361;-76
2022/12/01 10:31:56;;;;;;;2.97;2.87;;;18.00;71.80;;;;;;5114685;27;43419;-76
2022/12/01 10:34:26;;;;;;;3.33;3.23;;;18.00;71.50;;;;;;5122820;27;43383;-73
2022/12/01 10:36:54;;;;;;;3.00;2.90;;;17.90;71.40;;;;;;5123316;27;43857;-74
2022/12/01 10:39:26;;;;;;;2.87;2.87;;;17.90;71.50;;;;;;5121429;27;43540;-75
2022/12/01 10:41:55;;;;;;;3.23;3.13;;;17.90;71.60;;;;;;5124852;27;44157;-76
2022/12/01 10:44:23;;;;;;;3.10;3.00;;;17.80;71.90;;;;;;5127784;27;43464;-74
2022/12/01 10:46:52;;;;;;;3.30;3.20;;;17.90;72.00;;;;;;5127084;27;43921;-74
2022/12/01 10:49:23;;;;;;;2.93;2.83;;;17.80;71.80;;;;;;5116068;27;43481;-75
2022/12/01 10:51:53;;;;;;;3.27;3.17;;;17.80;71.80;;;;;;5121553;27;44071;-76
2022/12/01 10:54:21;;;;;;;3.57;3.40;;;17.80;71.80;;;;;;5125781;27;44141;-73
2022/12/01 10:56:50;;;;;;;2.97;2.87;;;17.80;71.90;;;;;;5119808;27;45616;-75
2022/12/01 10:59:31;;;;;;;3.40;3.30;;;17.80;72.20;;;;;;5124640;27;43515;-74
2022/12/01 11:01:59;;;;;;;2.80;2.70;;;17.80;72.30;;;;;;5112815;27;43515;-75
2022/12/01 11:04:36;;;;;;;3.07;2.97;;;17.90;72.00;;;;;;5116819;27;43490;-75
2022/12/01 11:07:04;;;;;;;3.30;3.20;;;18.00;71.60;;;;;;5114507;27;45810;-74
2022/12/01 11:09:32;;;;;;;3.40;3.30;;;18.00;71.40;;;;;;5122948;27;43992;-73
2022/12/01 11:12:00;;;;;;;3.10;3.00;;;18.00;71.40;;;;;;5121022;27;43619;-74
2022/12/01 11:14:33;;;;;;;3.10;3.00;;;17.90;71.80;;;;;;5122446;27;43617;-74
2022/12/01 11:17:15;;;;;;;3.03;2.93;;;17.90;71.60;;;;;;5107374;27;43677;-74
2022/12/01 11:19:44;;;;;;;3.07;2.97;;;17.90;71.50;;;;;;5119811;27;43459;-72
2022/12/01 11:22:20;;;;;;;3.37;3.17;;;17.90;71.60;;;;;;5124549;27;43976;-74
2022/12/01 11:24:59;;;;;;;3.40;3.30;;;17.90;71.60;;;;;;5120029;27;43942;-74
2022/12/01 11:27:30;;;;;;;3.70;3.50;;;17.80;71.70;;;;;;5124195;27;43923;-76
2022/12/01 11:30:01;;;;;;;3.03;2.93;;;17.80;72.10;;;;;;5119965;27;44626;-73
2022/12/01 11:32:30;;;;;;;3.13;3.03;;;17.80;71.80;;;;;;5120372;27;43372;-73
2022/12/01 11:35:00;;;;;;;3.10;3.00;;;17.80;71.80;;;;;;5116830;27;43537;-76
2022/12/01 11:37:31;;;;;;;3.00;2.90;;;17.80;71.80;;;;;;5128152;27;43896;-76
2022/12/01 11:40:06;;;;;;;2.80;2.73;;;17.80;71.90;;;;;;5113473;27;44293;-74
2022/12/01 11:42:35;;;;;;;3.30;3.20;;;17.80;72.00;;;;;;5119647;27;43424;-75
2022/12/01 11:45:07;;;;;;;3.40;3.30;;;17.80;72.40;;;;;;5118852;27;43950;-72
2022/12/01 11:47:35;;;;;;;3.63;3.53;;;17.90;72.20;;;;;;5117831;27;45869;-76
2022/12/01 11:50:22;;;;;;;3.37;3.27;;;18.00;71.80;;;;;;5122369;27;43523;-75
2022/12/01 11:52:50;;;;;;;3.30;3.20;;;18.00;71.40;;;;;;5117529;27;43452;-74
2022/12/01 11:55:22;;;;;;;3.70;3.60;;;18.00;71.80;;;;;;5125854;27;43357;-76
2022/12/01 11:57:51;;;;;;;3.30;3.10;;;18.00;71.60;;;;;;5124361;27;43823;-76
2022/12/01 12:00:20;;;;;;;3.20;3.10;;;18.00;71.60;;;;;;5124242;27;43383;-76
2022/12/01 12:03:07;;;;;;;2.97;2.87;;;18.00;71.30;;;;;;5123870;27;43737;-74
2022/12/01 12:05:58;;;;;;;3.10;3.00;;;17.90;71.30;;;;;;5109388;27;43993;-75
2022/12/01 12:08:56;;;;;;;3.30;3.20;;;17.90;71.40;;;;;;5095136;27;43832;-76
2022/12/01 12:11:28;;;;;;;3.30;3.20;;;17.90;71.60;;;;;;5122420;27;43545;-72
2022/12/01 12:14:11;;;;;;;3.33;3.23;;;17.80;72.00;;;;;;5123443;27;43393;-73
2022/12/01 12:16:49;;;;;;;3.23;3.13;;;17.80;71.70;;;;;;5120703;27;43331;-75
2022/12/01 12:19:26;;;;;;;3.07;2.97;;;17.80;71.70;;;;;;5123903;27;44413;-72
2022/12/01 12:22:15;;;;;;;2.90;2.80;;;17.80;71.80;;;;;;5112179;27;43508;-72
2022/12/01 12:24:51;;;;;;;3.43;3.33;;;17.80;71.90;;;;;;5121223;27;44010;-76
2022/12/01 12:27:23;;;;;;;3.67;3.57;;;17.80;72.10;;;;;;5122675;27;43545;-76
2022/12/01 12:29:57;;;;;;;3.13;3.03;;;17.70;72.00;;;;;;5122892;27;43972;-73
2022/12/01 12:32:38;;;;;;;3.13;3.03;;;17.80;71.90;;;;;;5123506;27;43417;-73
2022/12/01 12:35:15;;;;;;;2.97;2.87;;;17.80;71.90;;;;;;5127748;27;43478;-75
2022/12/01 12:37:47;;;;;;;3.30;3.20;;;17.80;71.90;;;;;;5114767;27;43482;-75
2022/12/01 12:40:26;;;;;;;3.23;3.13;;;17.70;71.90;;;;;;5119870;27;46113;-75
2022/12/01 12:43:07;;;;;;;3.60;3.50;;;17.70;72.20;;;;;;5118508;27;44672;-76
2022/12/01 12:45:42;;;;;;;3.53;3.43;;;17.80;72.20;;;;;;5120694;27;43405;-73
2022/12/01 12:48:18;;;;;;;3.77;3.53;;;17.90;71.90;;;;;;5126910;27;43476;-73
2022/12/01 12:50:53;;;;;;;3.20;3.10;;;18.00;71.50;;;;;;5118792;27;44040;-76
2022/12/01 12:53:39;;;;;;;3.50;3.40;;;18.10;71.10;;;;;;5112498;27;43550;-72
2022/12/01 12:56:08;;;;;;;3.20;3.10;;;18.00;70.80;;;;;;5109878;27;43682;-73
2022/12/01 12:58:37;;;;;;;3.40;3.30;;;18.00;71.40;;;;;;5120970;27;43527;-75
2022/12/01 13:01:07;;;;;;;3.37;3.27;;;18.10;71.30;;;;;;5119615;27;43926;-77
2022/12/01 13:03:43;;;;;;;3.30;3.10;;;18.00;70.90;;;;;;5123166;27;43518;-74
2022/12/01 13:06:13;;;;;;;3.43;3.33;;;18.00;71.10;;;;;;5115305;27;44099;-75